Time,TemperatureF,DewpointF,PressureIn,WindDirection,WindDirectionDegrees,WindSpeedMPH,WindSpeedGustMPH,Humidity,HourlyPrecipIn,Conditions,Clouds,dailyrainin,SoftwareType,DateUTC
2013-10-20 00:02:00,-999.0,-99.9,-100.00,WSW,237,14.0,-999.0,-999,-99.99,,,-99.99,,2013-10-20 04:02:00,
2013-10-20 00:24:00,46.0,40.0,-100.00,West,268,12.0,-999.0,80,-99.99,,,-99.99,,2013-10-20 04:24:00,
2013-10-20 00:44:00,45.0,40.0,-100.00,WSW,256,12.0,-999.0,80,-99.99,,,-99.99,,2013-10-20 04:44:00,
2013-10-20 01:23:00,45.0,39.0,-100.00,WSW,243,14.0,-999.0,78,-99.99,,,-99.99,,2013-10-20 05:23:00,
2013-10-20 01:52:00,44.0,39.0,-100.00,SW,231,9.0,-999.0,80,-99.99,,,-99.99,,2013-10-20 05:52:00,
2013-10-20 02:13:00,44.0,39.0,-100.00,West,263,8.0,-999.0,80,-99.99,,,-99.99,,2013-10-20 06:13:00,
2013-10-20 03:22:00,44.0,39.0,-100.00,West,259,14.0,-999.0,82,-99.99,,,-99.99,,2013-10-20 07:22:00,
2013-10-20 03:52:00,44.0,38.0,-100.00,WSW,254,12.0,-999.0,82,-99.99,,,-99.99,,2013-10-20 07:52:00,
2013-10-20 04:22:00,42.0,38.0,-100.00,WSW,247,12.0,-999.0,83,-99.99,,,-99.99,,2013-10-20 08:22:00,
2013-10-20 10:12:00,45.0,39.0,-100.00,West,260,5.0,-999.0,79,-99.99,,,-99.99,,2013-10-20 14:12:00,
2013-10-20 10:22:00,45.0,39.0,-100.00,West,265,6.0,-999.0,79,-99.99,,,-99.99,,2013-10-20 14:22:00,
2013-10-20 10:52:00,45.0,39.0,-100.00,WNW,282,11.0,-999.0,78,-99.99,,,-99.99,,2013-10-20 14:52:00,
2013-10-20 11:22:00,46.0,40.0,-100.00,SW,234,11.0,-999.0,78,-99.99,,,-99.99,,2013-10-20 15:22:00,
2013-10-20 12:24:00,49.0,41.0,-100.00,West,260,6.0,-999.0,73,-99.99,,,-99.99,,2013-10-20 16:24:00,
2013-10-20 13:23:00,49.0,40.0,-100.00,West,271,8.0,-999.0,70,-99.99,,,-99.99,,2013-10-20 17:23:00,
2013-10-20 14:12:00,50.0,40.0,-100.00,WSW,257,9.0,-999.0,69,-99.99,,,-99.99,,2013-10-20 18:12:00,
2013-10-20 14:22:00,50.0,40.0,-100.00,WSW,248,8.0,-999.0,70,-99.99,,,-99.99,,2013-10-20 18:22:00,
2013-10-20 15:22:00,49.0,40.0,-100.00,WSW,254,8.0,-999.0,70,-99.99,,,-99.99,,2013-10-20 19:22:00,
2013-10-20 16:22:00,49.0,40.0,-100.00,North,0,0.0,-999.0,72,-99.99,,,-99.99,,2013-10-20 20:22:00,
2013-10-20 17:22:00,49.0,40.0,-100.00,North,0,0.0,-999.0,71,-99.99,,,-99.99,,2013-10-20 21:22:00,
2013-10-20 17:44:00,49.0,41.0,-100.00,North,0,0.0,-999.0,74,-99.99,,,-99.99,,2013-10-20 21:44:00,
2013-10-20 18:53:00,47.0,42.0,-100.00,NE,35,1.0,-999.0,80,-99.99,,,-99.99,,2013-10-20 22:53:00,
2013-10-20 22:52:00,45.0,40.0,-100.00,North,0,0.0,-999.0,83,-99.99,,,-99.99,,2013-10-21 02:52:00,